Time;durP1;ratioP1;P1;durP2;ratioP2;P2;SDS_P1;SDS_P2;PMS_P1;PMS_P2;Temp;Humidity;BMP_temperature;BMP_pressure;BME280_temperature;BME280_humidity;BME280_pressure;Samples;Min_cycle;Max_cycle;Signal;HPM_P1;HPM_P2
2020/12/16 00:00:49;;;;;;;;;;;;;;;27.45;24.47;101744.50;5055783;28;855;-35
2020/12/16 00:03:14;;;;;;;;;;;;;;;26.94;24.62;101744.34;5056150;28;820;-35
2020/12/16 00:05:39;;;;;;;;;;;;;;;26.66;25.49;101745.28;5055591;28;995;-34
2020/12/16 00:08:04;;;;;;;;;;;;;;;26.75;25.35;101752.47;5057924;28;791;-35
2020/12/16 00:10:30;;;;;;;;;;;;;;;27.25;24.66;101758.25;5059803;28;831;-33
2020/12/16 00:12:55;;;;;;;;;;;;;;;27.45;24.49;101760.72;5059428;28;1902;-34
2020/12/16 00:15:20;;;;;;;;;;;;;;;26.99;24.65;101758.22;5059463;28;831;-34
2020/12/16 00:17:46;;;;;;;;;;;;;;;26.65;25.00;101763.34;5059553;28;756;-36
2020/12/16 00:20:11;;;;;;;;;;;;;;;26.71;25.08;101766.44;5058637;28;1288;-35
2020/12/16 00:22:37;;;;;;;;;;;;;;;27.27;24.46;101768.88;5059356;28;791;-34
2020/12/16 00:25:03;;;;;;;;;;;;;;;27.38;24.27;101774.03;5059052;28;977;-35
2020/12/16 00:27:28;;;;;;;;;;;;;;;26.78;24.92;101772.88;5059238;28;752;-35
2020/12/16 00:29:54;;;;;;;;;;;;;;;26.56;25.29;101782.31;5064153;28;1160;-32
2020/12/16 00:32:19;;;;;;;;;;;;;;;26.88;25.20;101773.66;5079080;28;1902;-34
2020/12/16 00:34:44;;;;;;;;;;;;;;;27.28;24.61;101772.44;5077525;28;1010;-35
2020/12/16 00:37:10;;;;;;;;;;;;;;;27.36;24.60;101780.59;5059307;28;787;-36
2020/12/16 00:39:35;;;;;;;;;;;;;;;26.72;25.06;101781.63;5058917;28;808;-35
2020/12/16 00:42:00;;;;;;;;;;;;;;;26.48;25.06;101783.94;5059058;28;759;-35
2020/12/16 00:44:25;;;;;;;;;;;;;;;26.98;24.70;101776.25;5059146;28;808;-36
2020/12/16 00:46:51;;;;;;;;;;;;;;;27.29;24.51;101779.53;5058801;28;759;-34
2020/12/16 00:49:16;;;;;;;;;;;;;;;27.21;24.52;101773.06;5058897;28;807;-35
2020/12/16 00:51:41;;;;;;;;;;;;;;;26.67;24.97;101774.00;5058680;28;952;-35
2020/12/16 00:54:06;;;;;;;;;;;;;;;26.55;25.06;101778.75;5058142;28;1901;-35
2020/12/16 00:56:32;;;;;;;;;;;;;;;27.22;24.50;101779.31;5058826;28;854;-35
2020/12/16 00:58:57;;;;;;;;;;;;;;;27.43;24.36;101775.38;5058891;28;815;-35
2020/12/16 01:01:22;;;;;;;;;;;;;;;26.85;24.72;101773.13;5058444;28;851;-35
2020/12/16 01:03:47;;;;;;;;;;;;;;;26.58;25.29;101773.06;5058624;28;759;-34
2020/12/16 01:06:13;;;;;;;;;;;;;;;26.82;25.14;101778.81;5058432;28;943;-36
2020/12/16 01:08:39;;;;;;;;;;;;;;;27.30;24.54;101775.81;5058195;28;748;-34
2020/12/16 01:11:04;;;;;;;;;;;;;;;27.45;24.43;101776.06;5058914;28;861;-35
2020/12/16 01:13:29;;;;;;;;;;;;;;;26.74;24.98;101764.25;5058783;28;1965;-35
2020/12/16 01:15:55;;;;;;;;;;;;;;;26.50;24.93;101772.97;5058021;28;859;-34
2020/12/16 01:18:20;;;;;;;;;;;;;;;26.89;24.91;101767.22;5057576;28;1070;-35
2020/12/16 01:20:46;;;;;;;;;;;;;;;27.25;24.49;101768.19;5057982;28;1030;-35
2020/12/16 01:23:11;;;;;;;;;;;;;;;27.41;24.53;101763.91;5057649;28;796;-35
2020/12/16 01:25:37;;;;;;;;;;;;;;;26.68;25.14;101764.00;5058417;28;804;-35
2020/12/16 01:28:02;;;;;;;;;;;;;;;26.36;24.94;101764.41;5057979;28;1527;-35
2020/12/16 01:30:27;;;;;;;;;;;;;;;27.04;24.78;101760.47;5067417;28;1104;-32
2020/12/16 01:32:53;;;;;;;;;;;;;;;27.31;24.54;101762.16;5077862;28;1980;-35
2020/12/16 01:35:18;;;;;;;;;;;;;;;27.21;24.51;101762.25;5071658;28;1007;-34
2020/12/16 01:37:43;;;;;;;;;;;;;;;26.65;25.08;101757.94;5057739;28;866;-34
2020/12/16 01:40:09;;;;;;;;;;;;;;;26.37;25.22;101759.88;5058058;28;780;-33
2020/12/16 01:42:40;;;;;;;;;;;;;;;27.05;24.69;101759.44;5058002;28;776;-34
2020/12/16 01:45:10;;;;;;;;;;;;;;;27.30;24.41;101757.75;5057646;28;887;-34
2020/12/16 01:47:35;;;;;;;;;;;;;;;26.81;24.45;101747.44;5057626;28;1020;-35
2020/12/16 01:50:00;;;;;;;;;;;;;;;26.45;24.92;101749.16;5057391;28;956;-35
2020/12/16 01:52:26;;;;;;;;;;;;;;;26.74;24.88;101748.06;5057524;28;1906;-35
2020/12/16 01:54:52;;;;;;;;;;;;;;;27.22;24.42;101749.59;5057521;28;874;-34
2020/12/16 01:57:18;;;;;;;;;;;;;;;27.36;24.40;101740.91;5057276;28;822;-35
2020/12/16 01:59:43;;;;;;;;;;;;;;;26.65;24.89;101752.56;5057433;28;748;-35
2020/12/16 02:02:08;;;;;;;;;;;;;;;26.38;24.93;101750.78;5040130;28;816;-35
2020/12/16 02:04:35;;;;;;;;;;;;;;;27.06;24.46;101748.50;5039147;28;1303;-35
2020/12/16 02:07:00;;;;;;;;;;;;;;;27.29;24.50;101750.69;5039333;28;1253;-36
2020/12/16 02:09:26;;;;;;;;;;;;;;;26.78;24.46;101746.75;5057506;28;800;-34
2020/12/16 02:11:51;;;;;;;;;;;;;;;26.39;25.19;101750.63;5057286;28;744;-35
2020/12/16 02:14:16;;;;;;;;;;;;;;;26.83;24.75;101757.06;5057102;28;1902;-35
2020/12/16 02:16:41;;;;;;;;;;;;;;;27.19;24.44;101750.78;5057194;28;1029;-36
2020/12/16 02:19:07;;;;;;;;;;;;;;;27.31;24.50;101742.41;5056935;28;1096;-35
2020/12/16 02:21:35;;;;;;;;;;;;;;;26.70;25.06;101748.53;5057007;28;1042;-35
2020/12/16 02:24:05;;;;;;;;;;;;;;;26.47;25.36;101746.31;5057525;28;839;-35
2020/12/16 02:26:32;;;;;;;;;;;;;;;26.89;24.99;101752.91;5057457;28;735;-35
2020/12/16 02:28:58;;;;;;;;;;;;;;;27.30;24.60;101740.69;5056900;28;810;-34
2020/12/16 02:31:23;;;;;;;;;;;;;;;27.21;24.54;101746.06;5073629;28;1128;-34
2020/12/16 02:33:48;;;;;;;;;;;;;;;26.60;25.21;101746.78;5059414;28;1910;-34
2020/12/16 02:36:14;;;;;;;;;;;;;;;26.28;25.19;101756.19;5063053;28;1006;-34
2020/12/16 02:38:43;;;;;;;;;;;;;;;27.04;24.84;101746.97;5056844;28;748;-34
2020/12/16 02:41:08;;;;;;;;;;;;;;;27.36;24.34;101750.88;5057026;28;752;-34
2020/12/16 02:43:34;;;;;;;;;;;;;;;26.97;24.57;101744.88;5056998;28;827;-34
2020/12/16 02:46:00;;;;;;;;;;;;;;;26.56;24.87;101745.38;5056673;28;796;-32
2020/12/16 02:48:27;;;;;;;;;;;;;;;26.60;25.05;101743.22;5056869;28;775;-34
2020/12/16 02:50:53;;;;;;;;;;;;;;;27.12;24.48;101745.19;5056321;28;955;-35
2020/12/16 02:53:19;;;;;;;;;;;;;;;27.37;24.43;101739.91;5056142;28;1906;-35
2020/12/16 02:55:44;;;;;;;;;;;;;;;26.78;24.57;101737.78;5056863;28;760;-35
2020/12/16 02:58:09;;;;;;;;;;;;;;;26.41;24.66;101745.91;5056579;28;833;-35
2020/12/16 03:00:34;;;;;;;;;;;;;;;26.81;24.78;101753.66;5056641;28;814;-34
2020/12/16 03:03:00;;;;;;;;;;;;;;;27.18;24.31;101749.06;5056859;28;831;-35
2020/12/16 03:05:25;;;;;;;;;;;;;;;27.37;24.22;101760.69;5055800;28;948;-34
2020/12/16 03:07:50;;;;;;;;;;;;;;;26.73;24.40;101745.50;5056679;28;807;-33
2020/12/16 03:10:15;;;;;;;;;;;;;;;26.49;24.45;101750.53;5057003;28;824;-35
2020/12/16 03:12:41;;;;;;;;;;;;;;;26.92;24.59;101749.91;5056519;28;1898;-35
2020/12/16 03:15:06;;;;;;;;;;;;;;;27.24;24.35;101744.91;5056084;28;840;-35
2020/12/16 03:17:31;;;;;;;;;;;;;;;27.32;24.27;101749.50;5056582;28;768;-35
2020/12/16 03:19:57;;;;;;;;;;;;;;;26.63;24.56;101754.56;5055804;28;1558;-34
2020/12/16 03:22:22;;;;;;;;;;;;;;;26.36;24.88;101750.91;5056214;28;759;-35
2020/12/16 03:24:47;;;;;;;;;;;;;;;26.97;24.38;101758.38;5056497;28;740;-35
2020/12/16 03:27:12;;;;;;;;;;;;;;;27.28;24.16;101753.53;5056571;28;769;-33
2020/12/16 03:29:38;;;;;;;;;;;;;;;27.22;24.34;101761.28;5058536;28;1186;-34
2020/12/16 03:32:03;;;;;;;;;;;;;;;26.58;24.85;101764.97;5076029;28;1969;-34
2020/12/16 03:34:28;;;;;;;;;;;;;;;26.35;24.76;101767.25;5076343;28;752;-34
2020/12/16 03:36:54;;;;;;;;;;;;;;;27.13;24.32;101762.22;5056986;28;998;-34
2020/12/16 03:39:19;;;;;;;;;;;;;;;27.33;24.26;101759.28;5055985;28;855;-37
2020/12/16 03:41:44;;;;;;;;;;;;;;;26.89;24.23;101758.31;5056427;28;783;-35
2020/12/16 03:44:10;;;;;;;;;;;;;;;26.50;25.08;101760.34;5059720;28;887;-34
2020/12/16 03:46:35;;;;;;;;;;;;;;;26.74;24.65;101766.94;5060129;28;811;-34
2020/12/16 03:49:00;;;;;;;;;;;;;;;27.29;24.44;101772.28;5060145;28;847;-34
2020/12/16 03:51:25;;;;;;;;;;;;;;;27.41;24.17;101774.72;5059529;28;1006;-35
2020/12/16 03:53:51;;;;;;;;;;;;;;;26.64;24.77;101769.72;5059941;28;1902;-35
2020/12/16 03:56:16;;;;;;;;;;;;;;;26.40;24.92;101773.06;5060134;28;839;-35
2020/12/16 03:58:45;;;;;;;;;;;;;;;26.94;24.64;101774.88;5059604;28;836;-34
2020/12/16 04:01:11;;;;;;;;;;;;;;;27.29;24.55;101782.25;5060029;28;771;-33
2020/12/16 04:03:36;;;;;;;;;;;;;;;27.06;24.58;101788.16;5059411;28;824;-36
2020/12/16 04:06:01;;;;;;;;;;;;;;;26.19;25.08;101789.50;5059288;28;959;-35
2020/12/16 04:08:27;;;;;;;;;;;;;;;25.72;24.86;101786.75;5059824;28;741;-34
2020/12/16 04:10:52;;;;;;;;;;;;;;;26.25;24.07;101791.56;5059578;28;800;-35
2020/12/16 04:13:17;;;;;;;;;;;;;;;23.92;24.45;101794.06;5059423;28;1930;-36
2020/12/16 04:15:43;;;;;;;;;;;;;;;21.52;26.95;101791.19;5059672;28;724;-38
2020/12/16 04:18:08;;;;;;;;;;;;;;;20.37;28.83;101790.69;5059236;28;1003;-38
2020/12/16 04:20:34;;;;;;;;;;;;;;;19.94;29.25;101783.94;5059353;28;986;-39
2020/12/16 04:22:59;;;;;;;;;;;;;;;19.75;29.40;101793.25;5059203;28;832;-36
2020/12/16 04:25:24;;;;;;;;;;;;;;;19.49;29.75;101792.38;5059191;28;803;-35
2020/12/16 04:27:50;;;;;;;;;;;;;;;19.10;30.09;101795.88;5059253;28;760;-35
2020/12/16 04:30:15;;;;;;;;;;;;;;;19.05;30.48;101798.78;5066718;28;1097;-38
2020/12/16 04:32:40;;;;;;;;;;;;;;;19.08;30.57;101798.59;5079123;28;1909;-33
2020/12/16 04:35:06;;;;;;;;;;;;;;;19.12;30.36;101801.94;5074794;28;1018;-38
2020/12/16 04:37:31;;;;;;;;;;;;;;;19.91;29.03;101805.53;5059237;28;831;-34
2020/12/16 04:39:56;;;;;;;;;;;;;;;19.80;29.12;101808.97;5059109;28;744;-33
2020/12/16 04:42:21;;;;;;;;;;;;;;;19.53;29.75;101801.91;5058859;28;841;-38
2020/12/16 04:44:47;;;;;;;;;;;;;;;19.32;29.95;101807.72;5058969;28;775;-39
2020/12/16 04:47:12;;;;;;;;;;;;;;;18.71;30.88;101815.25;5041476;28;803;-39
2020/12/16 04:49:37;;;;;;;;;;;;;;;18.83;30.91;101818.06;5058660;28;956;-39
2020/12/16 04:52:03;;;;;;;;;;;;;;;18.48;31.50;101816.72;5058351;28;1902;-38
2020/12/16 04:54:28;;;;;;;;;;;;;;;18.21;32.32;101821.06;5040528;28;808;-39
2020/12/16 04:56:53;;;;;;;;;;;;;;;18.40;31.37;101816.34;5058299;28;818;-35
2020/12/16 04:59:19;;;;;;;;;;;;;;;18.57;31.54;101829.44;5040612;28;808;-36
2020/12/16 05:01:44;;;;;;;;;;;;;;;18.74;31.14;101832.81;5058607;28;848;-36
2020/12/16 05:04:09;;;;;;;;;;;;;;;20.06;29.38;101824.97;5058045;28;775;-39
2020/12/16 05:06:35;;;;;;;;;;;;;;;21.07;27.23;101835.56;5057927;28;1151;-34
2020/12/16 05:09:04;;;;;;;;;;;;;;;21.51;26.92;101835.84;5058673;28;779;-35
2020/12/16 05:11:39;;;;;;;;;;;;;;;20.70;28.32;101832.94;5058306;28;728;-38
2020/12/16 05:14:08;;;;;;;;;;;;;;;22.35;26.20;101839.19;5058912;28;1902;-33
2020/12/16 05:16:50;;;;;;;;;;;;;;;26.00;21.29;101839.81;5058776;28;731;-36
2020/12/16 05:19:26;;;;;;;;;;;;;;;23.64;25.10;101850.22;5057726;28;1114;-36
2020/12/16 05:21:51;;;;;;;;;;;;;;;24.18;24.33;101840.16;5040969;28;1426;-37
2020/12/16 05:24:16;;;;;;;;;;;;;;;25.64;22.73;101846.75;5040230;28;1256;-36
2020/12/16 05:26:49;;;;;;;;;;;;;;;25.61;22.88;101841.63;5039700;28;1290;-37
2020/12/16 05:29:14;;;;;;;;;;;;;;;26.04;22.76;101839.38;5058624;28;784;-34
2020/12/16 05:31:40;;;;;;;;;;;;;;;26.21;22.51;101844.97;5059227;28;1572;-34
2020/12/16 05:34:05;;;;;;;;;;;;;;;26.35;22.57;101843.66;5077670;28;1996;-35
2020/12/16 05:36:31;;;;;;;;;;;;;;;26.64;22.29;101842.59;5060149;28;904;-32
2020/12/16 05:38:56;;;;;;;;;;;;;;;26.70;22.46;101848.38;5058065;28;874;-34
2020/12/16 05:41:39;;;;;;;;;;;;;;;26.87;22.53;101855.66;5057563;28;779;-36
2020/12/16 05:44:17;;;;;;;;;;;;;;;27.09;22.14;101858.91;5058281;28;745;-35
2020/12/16 05:46:42;;;;;;;;;;;;;;;27.27;21.98;101863.44;5057930;28;878;-36
2020/12/16 05:49:27;;;;;;;;;;;;;;;27.36;22.17;101861.66;5057485;28;795;-36
2020/12/16 05:51:56;;;;;;;;;;;;;;;27.51;21.91;101873.56;5057887;28;952;-36
2020/12/16 05:54:21;;;;;;;;;;;;;;;27.71;22.10;101862.56;5057852;28;1963;-37
2020/12/16 05:56:46;;;;;;;;;;;;;;;27.80;21.94;101873.44;5057770;28;802;-39
2020/12/16 05:59:12;;;;;;;;;;;;;;;27.91;21.93;101864.22;5057741;28;740;-38
2020/12/16 06:01:37;;;;;;;;;;;;;;;27.90;21.83;101870.59;5057565;28;826;-36
2020/12/16 06:04:02;;;;;;;;;;;;;;;27.97;21.78;101874.38;5039091;28;871;-36
2020/12/16 06:06:28;;;;;;;;;;;;;;;28.01;21.51;101869.50;5056964;28;1026;-38
2020/12/16 06:08:53;;;;;;;;;;;;;;;28.05;21.91;101876.25;5039338;28;829;-36
2020/12/16 06:11:18;;;;;;;;;;;;;;;28.17;21.85;101872.28;5057221;28;783;-37
2020/12/16 06:13:47;;;;;;;;;;;;;;;28.50;21.62;101868.84;5039676;28;1967;-36
2020/12/16 06:16:12;;;;;;;;;;;;;;;28.19;21.95;101872.97;5056972;28;1404;-34
2020/12/16 06:18:43;;;;;;;;;;;;;;;28.51;21.43;101870.53;5056919;28;1044;-35
2020/12/16 06:21:08;;;;;;;;;;;;;;;28.54;21.53;101866.66;5057380;28;986;-35
2020/12/16 06:23:35;;;;;;;;;;;;;;;28.52;21.50;101866.84;5056934;28;870;-34
2020/12/16 06:26:00;;;;;;;;;;;;;;;28.63;21.56;101873.78;5056682;28;933;-37
2020/12/16 06:28:26;;;;;;;;;;;;;;;28.67;21.39;101880.56;5057279;28;787;-35
2020/12/16 06:31:10;;;;;;;;;;;;;;;28.81;21.17;101870.94;5068971;28;1180;-33
2020/12/16 06:33:35;;;;;;;;;;;;;;;28.81;21.09;101870.09;5076678;28;1906;-35
2020/12/16 06:36:04;;;;;;;;;;;;;;;28.83;21.15;101874.31;5065016;28;1030;-35
2020/12/16 06:38:29;;;;;;;;;;;;;;;28.79;21.29;101874.84;5039079;28;851;-35
2020/12/16 06:40:56;;;;;;;;;;;;;;;28.96;21.18;101886.53;5056998;28;808;-35
2020/12/16 06:43:27;;;;;;;;;;;;;;;28.83;21.58;101887.88;5056876;28;808;-34
2020/12/16 06:45:52;;;;;;;;;;;;;;;28.76;21.41;101884.13;5056780;28;776;-35
2020/12/16 06:48:37;;;;;;;;;;;;;;;28.88;21.51;101886.53;5056435;28;866;-34
2020/12/16 06:51:15;;;;;;;;;;;;;;;28.74;21.75;101883.47;5068338;28;947;-34
2020/12/16 06:53:40;;;;;;;;;;;;;;;28.72;21.86;101888.19;5076752;28;1910;-35
2020/12/16 06:56:05;;;;;;;;;;;;;;;27.46;23.32;101899.38;5076484;28;748;-35
2020/12/16 06:58:37;;;;;;;;;;;;;;;27.34;23.64;101893.38;5076624;28;851;-32
2020/12/16 07:01:12;;;;;;;;;;;;;;;28.61;21.83;101900.19;5076900;28;730;-34
2020/12/16 07:03:37;;;;;;;;;;;;;;;28.87;21.77;101899.22;5075805;28;812;-34
2020/12/16 07:06:02;;;;;;;;;;;;;;;28.60;22.08;101901.19;5064262;28;955;-35
2020/12/16 07:08:28;;;;;;;;;;;;;;;28.46;22.05;101900.81;5056897;28;914;-35
2020/12/16 07:10:54;;;;;;;;;;;;;;;28.44;22.30;101912.81;5056102;28;796;-36
2020/12/16 07:13:26;;;;;;;;;;;;;;;28.63;21.90;101906.25;5056321;28;1973;-37
2020/12/16 07:15:52;;;;;;;;;;;;;;;28.65;21.95;101915.06;5056826;28;490;-33
2020/12/16 07:18:21;;;;;;;;;;;;;;;28.60;22.01;101904.75;5060271;28;1258;-35
2020/12/16 07:20:47;;;;;;;;;;;;;;;29.06;21.69;101908.06;5060631;28;975;-39
2020/12/16 07:23:14;;;;;;;;;;;;;;;28.83;21.98;101914.09;5060696;28;815;-36
2020/12/16 07:25:41;;;;;;;;;;;;;;;28.88;22.02;101913.63;5042382;28;934;-36
2020/12/16 07:28:06;;;;;;;;;;;;;;;28.78;22.09;101920.00;5042315;28;1273;-36
2020/12/16 07:30:52;;;;;;;;;;;;;;;28.95;21.59;101920.91;5070458;28;1085;-37
2020/12/16 07:33:17;;;;;;;;;;;;;;;28.94;21.77;101910.22;5079628;28;2229;-36
2020/12/16 07:35:46;;;;;;;;;;;;;;;28.95;21.89;101911.91;5070656;28;1014;-36
2020/12/16 07:38:12;;;;;;;;;;;;;;;29.13;21.65;101908.25;5060030;28;840;-36
2020/12/16 07:40:37;;;;;;;;;;;;;;;27.59;23.23;101913.31;5059956;28;802;-36
2020/12/16 07:43:02;;;;;;;;;;;;;;;27.42;23.95;101908.81;5060121;28;823;-37
2020/12/16 07:45:28;;;;;;;;;;;;;;;28.57;22.44;101915.91;5060525;28;772;-32
2020/12/16 07:47:53;;;;;;;;;;;;;;;28.78;21.93;101913.75;5059850;28;800;-35
2020/12/16 07:50:18;;;;;;;;;;;;;;;28.70;22.21;101917.28;5042035;28;960;-35
2020/12/16 07:52:43;;;;;;;;;;;;;;;28.78;22.33;101921.88;5059958;28;1894;-36
2020/12/16 07:55:09;;;;;;;;;;;;;;;28.84;21.91;101927.47;5041644;28;1508;-36
2020/12/16 07:57:35;;;;;;;;;;;;;;;28.86;22.02;101935.44;5060207;28;803;-36
2020/12/16 08:00:00;;;;;;;;;;;;;;;29.07;21.91;101936.84;5060060;28;842;-36
2020/12/16 08:02:26;;;;;;;;;;;;;;;29.06;21.68;101940.59;5060085;28;755;-36
2020/12/16 08:04:54;;;;;;;;;;;;;;;29.00;22.21;101941.22;5059708;28;955;-36
2020/12/16 08:07:20;;;;;;;;;;;;;;;29.19;21.71;101934.66;5059542;28;799;-35
2020/12/16 08:09:51;;;;;;;;;;;;;;;29.35;21.83;101933.81;5059260;28;744;-37
2020/12/16 08:12:18;;;;;;;;;;;;;;;29.42;21.60;101936.69;5059696;28;1981;-37
2020/12/16 08:14:43;;;;;;;;;;;;;;;28.75;22.58;101942.00;5059630;28;816;-37
2020/12/16 08:17:09;;;;;;;;;;;;;;;28.05;23.24;101941.19;5059290;28;744;-37
2020/12/16 08:19:34;;;;;;;;;;;;;;;28.82;22.65;101934.06;5059296;28;1084;-35
2020/12/16 08:21:59;;;;;;;;;;;;;;;28.87;22.69;101939.84;5059390;28;963;-36
2020/12/16 08:24:25;;;;;;;;;;;;;;;28.99;22.12;101931.41;5041206;28;855;-36
2020/12/16 08:26:50;;;;;;;;;;;;;;;29.00;22.23;101935.81;5059404;28;715;-36
2020/12/16 08:29:16;;;;;;;;;;;;;;;29.27;21.90;101936.53;5058310;28;833;-36
2020/12/16 08:31:41;;;;;;;;;;;;;;;28.63;22.94;101933.34;5078495;28;1084;-35
2020/12/16 08:34:06;;;;;;;;;;;;;;;28.26;23.15;101943.47;5061161;28;1981;-35
2020/12/16 08:36:32;;;;;;;;;;;;;;;28.68;22.91;101936.41;5044542;28;983;-36
2020/12/16 08:38:58;;;;;;;;;;;;;;;29.25;22.19;101933.13;5058866;28;723;-36
2020/12/16 08:41:24;;;;;;;;;;;;;;;29.43;21.98;101931.09;5041088;28;1656;-35
2020/12/16 08:43:49;;;;;;;;;;;;;;;29.14;22.18;101920.78;5059292;28;790;-36
2020/12/16 08:46:19;;;;;;;;;;;;;;;29.29;22.11;101927.22;5058516;28;949;-35
2020/12/16 08:48:46;;;;;;;;;;;;;;;29.27;22.04;101928.38;5058799;28;815;-35
2020/12/16 08:51:12;;;;;;;;;;;;;;;29.30;22.25;101926.19;5058687;28;1014;-35
2020/12/16 08:53:57;;;;;;;;;;;;;;;28.67;22.69;101928.44;5058933;28;1902;-35
2020/12/16 08:56:23;;;;;;;;;;;;;;;28.42;23.39;101926.53;5058812;28;736;-36
2020/12/16 08:59:08;;;;;;;;;;;;;;;29.28;22.30;101928.22;5058805;28;905;-35
2020/12/16 09:01:34;;;;;;;;;;;;;;;29.47;22.12;101931.59;5058261;28;772;-36
2020/12/16 09:03:59;;;;;;;;;;;;;;;29.44;21.92;101926.53;5058902;28;727;-34
2020/12/16 09:06:24;;;;;;;;;;;;;;;29.33;22.38;101933.13;5058412;28;1014;-36
2020/12/16 09:08:50;;;;;;;;;;;;;;;29.36;22.04;101926.53;5058406;28;767;-34
2020/12/16 09:11:19;;;;;;;;;;;;;;;29.55;21.95;101918.03;5058500;28;895;-36
2020/12/16 09:13:44;;;;;;;;;;;;;;;29.23;22.10;101917.03;5058678;28;1902;-36
2020/12/16 09:16:14;;;;;;;;;;;;;;;28.58;23.24;101919.44;5058041;28;859;-35
2020/12/16 09:18:39;;;;;;;;;;;;;;;28.73;22.92;101914.25;5040123;28;1304;-35
2020/12/16 09:21:06;;;;;;;;;;;;;;;28.91;22.59;101916.81;5058235;28;975;-36
2020/12/16 09:23:31;;;;;;;;;;;;;;;28.16;23.69;101918.44;5057900;28;886;-36
2020/12/16 09:25:57;;;;;;;;;;;;;;;28.22;23.67;101915.94;5057810;28;804;-36
2020/12/16 09:28:34;;;;;;;;;;;;;;;28.98;23.00;101910.78;5058358;28;850;-36
2020/12/16 09:31:12;;;;;;;;;;;;;;;29.27;22.68;101906.72;5071708;28;1089;-36
2020/12/16 09:33:37;;;;;;;;;;;;;;;29.27;22.34;101909.41;5077910;28;1917;-36
2020/12/16 09:36:02;;;;;;;;;;;;;;;29.08;22.70;101903.31;5066025;28;1003;-36
2020/12/16 09:38:28;;;;;;;;;;;;;;;29.18;22.44;101905.84;5057907;28;787;-35
2020/12/16 09:40:59;;;;;;;;;;;;;;;28.54;23.08;101905.41;5057122;28;832;-35
2020/12/16 09:43:37;;;;;;;;;;;;;;;28.30;23.61;101906.13;5058012;28;820;-37
2020/12/16 09:46:12;;;;;;;;;;;;;;;28.95;22.96;101896.50;5057577;28;772;-37
2020/12/16 09:48:41;;;;;;;;;;;;;;;29.16;22.46;101897.06;5057510;28;878;-36
2020/12/16 09:51:13;;;;;;;;;;;;;;;28.47;23.42;101898.97;5057801;28;959;-35
2020/12/16 09:53:39;;;;;;;;;;;;;;;27.94;24.08;101897.19;5057238;28;1906;-36
2020/12/16 09:56:04;;;;;;;;;;;;;;;28.70;23.36;101893.78;5057555;28;824;-37
2020/12/16 09:58:34;;;;;;;;;;;;;;;28.98;22.98;101895.34;5057786;28;838;-36
2020/12/16 10:01:00;;;;;;;;;;;;;;;29.10;22.87;101893.16;5057307;28;782;-37
2020/12/16 10:03:25;;;;;;;;;;;;;;;29.17;22.82;101896.91;5057427;28;866;-38
2020/12/16 10:05:50;;;;;;;;;;;;;;;28.71;23.48;101894.63;5057314;28;951;-30
2020/12/16 10:08:16;;;;;;;;;;;;;;;28.63;23.57;101895.44;5056854;28;877;-33
2020/12/16 10:10:42;;;;;;;;;;;;;;;28.24;23.90;101886.00;5057526;28;791;-37
2020/12/16 10:13:08;;;;;;;;;;;;;;;28.14;24.31;101879.88;5057383;28;1972;-37
2020/12/16 10:15:33;;;;;;;;;;;;;;;28.70;23.45;101877.53;5056989;28;772;-37
2020/12/16 10:17:58;;;;;;;;;;;;;;;29.06;22.95;101878.28;5057227;28;1210;-37
2020/12/16 10:20:24;;;;;;;;;;;;;;;29.15;22.96;101876.41;5057140;28;1042;-37
2020/12/16 10:22:50;;;;;;;;;;;;;;;28.94;23.03;101867.75;5056883;28;764;-36
2020/12/16 10:25:15;;;;;;;;;;;;;;;28.81;23.62;101878.22;5057307;28;773;-36
2020/12/16 10:27:40;;;;;;;;;;;;;;;28.40;23.97;101877.13;5056864;28;871;-35
2020/12/16 10:30:06;;;;;;;;;;;;;;;27.98;24.31;101865.25;5063149;28;1096;-36
2020/12/16 10:32:31;;;;;;;;;;;;;;;28.57;23.48;101863.63;5077087;28;1918;-33
2020/12/16 10:34:56;;;;;;;;;;;;;;;28.90;23.33;101869.09;5073948;28;951;-34
2020/12/16 10:37:24;;;;;;;;;;;;;;;29.09;23.22;101864.38;5056764;28;932;-28
2020/12/16 10:39:50;;;;;;;;;;;;;;;28.72;23.20;101861.97;5057106;28;808;-32
2020/12/16 10:42:15;;;;;;;;;;;;;;;28.29;24.17;101862.00;5056876;28;783;-28
2020/12/16 10:44:41;;;;;;;;;;;;;;;28.38;24.03;101856.66;5056835;28;808;-35
2020/12/16 10:47:07;;;;;;;;;;;;;;;28.87;23.15;101846.91;5057240;28;768;-28
2020/12/16 10:49:32;;;;;;;;;;;;;;;28.96;23.26;101854.84;5056434;28;816;-36
2020/12/16 10:52:01;;;;;;;;;;;;;;;28.99;23.17;101848.31;5056330;28;955;-28
2020/12/16 10:54:26;;;;;;;;;;;;;;;28.78;23.47;101846.91;5056704;28;1906;-28
2020/12/16 10:56:52;;;;;;;;;;;;;;;28.63;23.56;101852.13;5056587;28;839;-31
2020/12/16 10:59:17;;;;;;;;;;;;;;;27.96;24.72;101843.78;5056244;28;931;-29
2020/12/16 11:01:43;;;;;;;;;;;;;;;28.53;24.18;101836.03;5056380;28;822;-32
2020/12/16 11:04:08;;;;;;;;;;;;;;;29.03;23.25;101846.94;5056598;28;817;-30
2020/12/16 11:06:34;;;;;;;;;;;;;;;29.25;23.03;101841.84;5056038;28;1014;-36
2020/12/16 11:08:59;;;;;;;;;;;;;;;29.15;23.36;101850.16;5056930;28;826;-35
2020/12/16 11:11:25;;;;;;;;;;;;;;;28.95;23.39;101838.78;5056178;28;858;-36
2020/12/16 11:13:50;;;;;;;;;;;;;;;29.00;23.28;101838.28;5056621;28;1902;-31
2020/12/16 11:16:15;;;;;;;;;;;;;;;29.08;23.24;101835.59;5056160;28;840;-35
2020/12/16 11:18:41;;;;;;;;;;;;;;;28.72;23.60;101834.88;5056201;28;1040;-28
2020/12/16 11:21:06;;;;;;;;;;;;;;;28.23;24.40;101830.19;5056285;28;1026;-28
2020/12/16 11:23:31;;;;;;;;;;;;;;;29.03;23.29;101833.38;5056214;28;787;-35
2020/12/16 11:25:56;;;;;;;;;;;;;;;29.47;23.03;101831.31;5056206;28;747;-34
2020/12/16 11:28:22;;;;;;;;;;;;;;;28.56;24.00;101827.56;5056444;28;791;-35
2020/12/16 11:30:47;;;;;;;;;;;;;;;28.24;24.36;101821.88;5068049;28;1097;-36
2020/12/16 11:33:12;;;;;;;;;;;;;;;28.90;23.43;101819.47;5076093;28;1971;-34
2020/12/16 11:35:38;;;;;;;;;;;;;;;29.29;22.87;101821.53;5067792;28;1018;-33
2020/12/16 11:38:03;;;;;;;;;;;;;;;29.47;22.88;101820.47;5055900;28;804;-35
2020/12/16 11:40:28;;;;;;;;;;;;;;;28.24;24.08;101818.34;5056355;28;748;-36
2020/12/16 11:42:53;;;;;;;;;;;;;;;27.98;24.45;101819.28;5056338;28;816;-36
2020/12/16 11:45:19;;;;;;;;;;;;;;;28.62;24.13;101819.81;5056003;28;855;-36
2020/12/16 11:47:44;;;;;;;;;;;;;;;28.96;23.38;101816.13;5056382;28;752;-35
2020/12/16 11:50:10;;;;;;;;;;;;;;;29.07;23.17;101812.22;5056142;28;1006;-33
2020/12/16 11:52:35;;;;;;;;;;;;;;;28.06;24.41;101811.19;5056106;28;1975;-35
2020/12/16 11:55:00;;;;;;;;;;;;;;;27.95;24.71;101819.59;5056155;28;847;-32
2020/12/16 11:57:26;;;;;;;;;;;;;;;28.39;24.21;101815.91;5056267;28;779;-36
2020/12/16 11:59:51;;;;;;;;;;;;;;;28.81;23.85;101822.19;5055650;28;830;-36
2020/12/16 12:02:16;;;;;;;;;;;;;;;28.06;24.62;101823.88;5055776;28;846;-37
2020/12/16 12:04:41;;;;;;;;;;;;;;;28.01;24.72;101826.22;5059226;28;1139;-37
2020/12/16 12:07:08;;;;;;;;;;;;;;;28.60;23.86;101819.97;5059591;28;847;-35
2020/12/16 12:09:33;;;;;;;;;;;;;;;28.93;23.59;101829.97;5060144;28;758;-36
2020/12/16 12:11:58;;;;;;;;;;;;;;;29.01;23.52;101829.19;5060129;28;818;-36
2020/12/16 12:14:23;;;;;;;;;;;;;;;28.94;23.73;101831.69;5059180;28;1972;-32
2020/12/16 12:16:53;;;;;;;;;;;;;;;28.68;24.33;101830.81;5059995;28;834;-36
2020/12/16 12:19:18;;;;;;;;;;;;;;;28.40;24.39;101828.41;5059256;28;1059;-35
2020/12/16 12:21:44;;;;;;;;;;;;;;;28.07;25.01;101825.56;5059265;28;963;-32
2020/12/16 12:24:09;;;;;;;;;;;;;;;28.93;24.12;101828.13;5059633;28;791;-34
2020/12/16 12:26:34;;;;;;;;;;;;;;;29.13;23.56;101827.78;5059363;28;834;-37
2020/12/16 12:29:00;;;;;;;;;;;;;;;28.15;24.74;101822.88;5059115;28;828;-36
2020/12/16 12:31:25;;;;;;;;;;;;;;;28.05;25.19;101824.88;5076601;28;1093;-37
2020/12/16 12:33:50;;;;;;;;;;;;;;;28.88;23.97;101829.66;5079247;28;1914;-36
2020/12/16 12:36:16;;;;;;;;;;;;;;;29.13;23.48;101824.25;5065153;28;1002;-36
2020/12/16 12:38:41;;;;;;;;;;;;;;;28.97;24.04;101828.66;5059338;28;827;-36
2020/12/16 12:41:06;;;;;;;;;;;;;;;28.17;24.94;101837.09;5059180;28;771;-37
2020/12/16 12:43:31;;;;;;;;;;;;;;;28.34;25.09;101834.47;5058747;28;736;-36
2020/12/16 12:45:57;;;;;;;;;;;;;;;28.85;24.43;101844.38;5058894;28;827;-37
2020/12/16 12:48:22;;;;;;;;;;;;;;;28.83;24.44;101841.81;5059218;28;825;-36